KCMH/CMH METAR and TAF weather

Enter ICAO airport designator
Station Type Date Time Source
KCMH METAR 2019/12/09 05:51 UTC NOAA

KCMH 090551Z 15007KT 10SM BKN045 OVC065 11/03 A2996 RMK AO2 SLP146 T01060028 10111 20106 56012


Station Type Date Time Source
KCMH Decoded METAR 2019/12/09 05:51 UTC NOAA

PORT COLUMBUS INTERNATIONAL AIRPORT, OH, United States (KCMH) 40-00N 82-53W 247M
Dec 09, 2019 - 12:51 AM EST / 2019.12.09 0551 UTC
Wind: from the SSE (150 degrees) at 8 MPH (7 KT):0
Visibility: 10 mile(s):0
Sky conditions: overcast
Temperature: 51.1 F (10.6 C)
Dew Point: 37.0 F (2.8 C)
Relative Humidity: 58%
Pressure (altimeter): 29.96 in. Hg (1014 hPa)
Pressure tendency: 0.04 inches (1.2 hPa) lower than three hours ago
ob: KCMH 090551Z 15007KT 10SM BKN045 OVC065 11/03 A2996 RMK AO2 SLP146 T01060028 10111 20106 56012
cycle: 6

Station Type Date Time Source
KCMH TAF 2019/12/09 06:54 UTC NOAA

TAF KCMH 090553Z 0906/1006 16008KT P6SM OVC050
FM090900 17008KT P6SM VCSH OVC035
FM091200 17008KT P6SM -RA SCT015 OVC025 WS020/20040KT
FM091300 17009KT P6SM -RA SCT008 OVC015 WS020/20040KT
FM091400 17010KT 5SM BR VCSH OVC008 WS020/21040KT
FM091700 19014G22KT P6SM -RA OVC009 WS020/21040KT
FM100200 24009KT P6SM OVC015

Example: see airport list